createdAt,value
2023-03-29T00:02:18.319Z,3.88
2023-03-29T00:04:45.245Z,3.70
2023-03-29T00:07:14.122Z,3.75
2023-03-29T00:09:40.493Z,3.58
2023-03-29T00:12:07.144Z,3.65
2023-03-29T00:14:33.559Z,3.92
2023-03-29T00:17:00.037Z,4.10
2023-03-29T00:19:26.558Z,4.28
2023-03-29T00:21:52.961Z,3.92
2023-03-29T00:24:21.067Z,4.00
2023-03-29T00:26:47.637Z,4.70
2023-03-29T00:29:14.035Z,4.50
2023-03-29T00:31:40.476Z,4.53
2023-03-29T00:34:07.227Z,4.97
2023-03-29T00:36:33.652Z,5.07
2023-03-29T00:39:00.037Z,5.28
2023-03-29T00:41:27.142Z,4.88
2023-03-29T00:44:02.403Z,4.85
2023-03-29T00:46:30.952Z,4.70
2023-03-29T00:49:05.775Z,5.18
2023-03-29T00:51:34.802Z,5.10
2023-03-29T00:54:04.551Z,5.30
2023-03-29T00:56:40.365Z,5.53
2023-03-29T00:59:13.651Z,5.82
2023-03-29T01:01:42.026Z,5.80
2023-03-29T01:04:18.530Z,6.10
2023-03-29T01:06:52.614Z,6.20
2023-03-29T01:09:21.874Z,5.80
2023-03-29T01:11:53.379Z,6.00
2023-03-29T01:14:29.922Z,5.57
2023-03-29T01:16:56.585Z,6.18
2023-03-29T01:19:28.337Z,6.07
2023-03-29T01:22:28.178Z,5.88
2023-03-29T01:25:07.086Z,6.25
2023-03-29T01:27:57.868Z,6.03
2023-03-29T01:30:33.284Z,6.70
2023-03-29T01:33:14.362Z,6.75
2023-03-29T01:35:57.521Z,6.93
2023-03-29T01:38:49.905Z,6.72
2023-03-29T01:41:16.552Z,6.82
2023-03-29T01:43:57.096Z,7.20
2023-03-29T01:49:01.620Z,6.72
2023-03-29T01:51:37.460Z,6.75
2023-03-29T01:54:12.698Z,6.90
2023-03-29T01:56:42.169Z,6.88
2023-03-29T01:59:13.643Z,7.50
2023-03-29T02:01:49.541Z,6.57
2023-03-29T02:04:22.744Z,6.68
2023-03-29T02:06:54.145Z,6.60
2023-03-29T02:09:21.455Z,7.13
2023-03-29T02:11:50.060Z,7.63
2023-03-29T02:14:16.949Z,7.00
2023-03-29T02:16:45.446Z,7.07
2023-03-29T02:19:13.421Z,6.93
2023-03-29T02:21:48.323Z,6.35
2023-03-29T02:24:18.939Z,6.43
2023-03-29T02:26:45.873Z,6.67
2023-03-29T02:29:12.550Z,6.78
2023-03-29T02:31:55.562Z,6.50
2023-03-29T02:34:30.876Z,6.65
2023-03-29T02:37:03.814Z,7.00
2023-03-29T02:39:33.693Z,6.85
2023-03-29T02:42:01.674Z,7.97
2023-03-29T02:44:30.819Z,7.93
2023-03-29T02:47:03.139Z,7.88
2023-03-29T02:49:29.637Z,7.32
2023-03-29T02:51:59.085Z,7.68
2023-03-29T02:54:29.918Z,7.93
2023-03-29T02:57:00.423Z,7.57
2023-03-29T02:59:29.872Z,8.10
2023-03-29T03:01:56.635Z,7.60
2023-03-29T03:04:23.139Z,7.88
2023-03-29T03:06:49.561Z,7.50
2023-03-29T03:09:16.140Z,8.27
2023-03-29T03:11:42.769Z,7.97
2023-03-29T03:14:09.343Z,7.50
2023-03-29T03:16:37.033Z,8.32
2023-03-29T03:19:04.059Z,7.78
2023-03-29T03:21:30.586Z,7.57
2023-03-29T03:23:57.016Z,7.13
2023-03-29T03:26:24.926Z,7.78
2023-03-29T03:28:51.359Z,7.78
2023-03-29T03:31:17.825Z,8.00
2023-03-29T03:33:44.731Z,8.63
2023-03-29T03:36:11.704Z,7.93
2023-03-29T03:38:38.552Z,8.10
2023-03-29T03:41:06.926Z,8.00
2023-03-29T03:43:34.018Z,7.47
2023-03-29T03:46:00.494Z,6.88
2023-03-29T03:48:27.089Z,7.75
2023-03-29T03:50:55.818Z,7.88
2023-03-29T03:53:23.628Z,7.50
2023-03-29T03:55:51.747Z,7.05
2023-03-29T03:58:18.967Z,6.80
2023-03-29T04:00:48.451Z,6.50
2023-03-29T04:03:15.540Z,6.87
2023-03-29T04:05:44.544Z,6.80
2023-03-29T04:08:12.563Z,6.00
2023-03-29T04:10:39.586Z,6.43
2023-03-29T04:13:05.986Z,6.65
2023-03-29T04:15:34.186Z,6.00
2023-03-29T04:18:01.372Z,5.53
2023-03-29T04:20:28.183Z,5.90
2023-03-29T04:22:55.608Z,5.70
2023-03-29T04:25:22.328Z,5.43
2023-03-29T04:27:51.774Z,5.50
2023-03-29T04:30:18.157Z,5.72
2023-03-29T04:32:47.395Z,6.13
2023-03-29T04:35:13.779Z,5.10
2023-03-29T04:37:40.381Z,5.20
2023-03-29T04:40:14.925Z,5.30
2023-03-29T04:42:45.916Z,5.43
2023-03-29T04:45:18.017Z,4.88
2023-03-29T04:47:45.691Z,4.97
2023-03-29T04:50:13.779Z,4.90
2023-03-29T04:52:40.862Z,5.05
2023-03-29T04:55:08.197Z,5.28
2023-03-29T04:57:34.667Z,5.50
2023-03-29T05:00:01.260Z,5.30
2023-03-29T05:02:27.784Z,4.93
2023-03-29T05:04:54.192Z,4.93
2023-03-29T05:07:20.666Z,4.70
2023-03-29T05:09:47.383Z,4.93
2023-03-29T05:12:13.868Z,5.28
2023-03-29T05:14:40.226Z,4.90
2023-03-29T05:17:06.604Z,5.15
2023-03-29T05:19:33.624Z,4.70
2023-03-29T05:22:00.112Z,5.20
2023-03-29T05:24:26.583Z,4.60
2023-03-29T05:26:53.040Z,4.40
2023-03-29T05:29:19.470Z,4.80
2023-03-29T05:31:47.097Z,4.47
2023-03-29T05:34:13.678Z,4.57
2023-03-29T05:36:40.134Z,4.50
2023-03-29T05:39:07.106Z,4.80
2023-03-29T05:41:34.528Z,4.68
2023-03-29T05:44:01.579Z,4.75
2023-03-29T05:46:28.106Z,4.30
2023-03-29T05:48:54.818Z,4.80
2023-03-29T05:51:24.337Z,4.70
2023-03-29T05:53:51.726Z,4.43
2023-03-29T05:56:18.986Z,4.47
2023-03-29T05:58:50.973Z,4.60
2023-03-29T06:01:18.795Z,4.55
2023-03-29T06:03:47.293Z,4.50
2023-03-29T06:06:16.488Z,4.63
2023-03-29T06:08:43.869Z,4.35
2023-03-29T06:11:13.367Z,4.25
2023-03-29T06:13:42.187Z,4.57
2023-03-29T06:16:10.537Z,4.40
2023-03-29T06:18:40.138Z,4.35
2023-03-29T06:21:09.146Z,3.75
2023-03-29T06:23:36.425Z,4.70
2023-03-29T06:26:03.003Z,4.03
2023-03-29T06:28:29.809Z,4.15
2023-03-29T06:31:02.860Z,4.28
2023-03-29T06:33:32.319Z,4.10
2023-03-29T06:35:58.798Z,4.20
2023-03-29T06:38:28.397Z,4.25
2023-03-29T06:41:03.924Z,4.00
2023-03-29T06:43:33.417Z,3.97
2023-03-29T06:46:00.231Z,4.28
2023-03-29T06:50:54.521Z,4.10
2023-03-29T06:53:22.043Z,4.30
2023-03-29T06:55:50.789Z,4.30
2023-03-29T06:58:17.310Z,4.45
2023-03-29T07:00:43.671Z,4.65
2023-03-29T07:03:13.443Z,4.50
2023-03-29T07:05:41.986Z,4.50
2023-03-29T07:08:08.540Z,4.00
2023-03-29T07:10:41.134Z,4.57
2023-03-29T07:13:10.522Z,4.30
2023-03-29T07:15:37.038Z,4.80
2023-03-29T07:18:04.786Z,4.57
2023-03-29T07:20:33.721Z,4.68
2023-03-29T07:23:00.606Z,4.93
2023-03-29T07:25:27.607Z,4.85
2023-03-29T07:27:53.989Z,4.75
2023-03-29T07:30:29.626Z,5.15
2023-03-29T07:32:58.616Z,5.68
2023-03-29T07:35:26.705Z,5.60
2023-03-29T07:37:54.930Z,6.18
2023-03-29T07:40:23.726Z,5.35
2023-03-29T07:42:58.067Z,5.95
2023-03-29T07:45:28.160Z,6.22
2023-03-29T07:47:57.312Z,5.90
2023-03-29T07:50:24.720Z,6.43
2023-03-29T07:52:51.316Z,6.63
2023-03-29T07:55:17.774Z,6.65
2023-03-29T07:57:44.514Z,6.32
2023-03-29T08:00:15.749Z,6.82
2023-03-29T08:02:50.700Z,6.55
2023-03-29T08:05:26.064Z,7.22
2023-03-29T08:07:56.191Z,6.72
2023-03-29T08:10:22.830Z,6.55
2023-03-29T08:12:50.347Z,6.63
2023-03-29T08:15:16.994Z,6.50
2023-03-29T08:17:43.731Z,6.70
2023-03-29T08:20:12.753Z,6.90
2023-03-29T08:22:39.660Z,7.43
2023-03-29T08:25:07.315Z,7.18
2023-03-29T08:27:34.628Z,7.03
2023-03-29T08:30:01.410Z,6.82
2023-03-29T08:32:27.889Z,7.50
2023-03-29T08:34:54.302Z,7.25
2023-03-29T08:37:20.702Z,6.88
2023-03-29T08:39:47.066Z,7.28
2023-03-29T08:42:26.553Z,6.78
2023-03-29T08:45:09.472Z,7.03
2023-03-29T08:47:51.282Z,6.80
2023-03-29T08:50:18.941Z,8.05
2023-03-29T08:52:50.959Z,7.00
2023-03-29T08:55:31.593Z,6.95
2023-03-29T08:57:59.989Z,7.63
2023-03-29T09:00:49.459Z,7.47
2023-03-29T09:03:22.774Z,6.82
2023-03-29T09:05:56.348Z,6.72
2023-03-29T09:08:23.179Z,6.57
2023-03-29T09:11:28.052Z,6.85
2023-03-29T09:14:05.953Z,6.97
2023-03-29T09:16:40.574Z,7.38
2023-03-29T09:19:16.307Z,7.40
2023-03-29T09:21:51.624Z,6.38
2023-03-29T09:24:28.873Z,6.68
2023-03-29T09:27:16.741Z,6.68
2023-03-29T09:29:50.283Z,6.30
2023-03-29T09:32:22.373Z,6.93
2023-03-29T09:35:23.121Z,6.38
2023-03-29T09:37:52.517Z,6.70
2023-03-29T09:40:27.901Z,6.55
2023-03-29T09:42:55.986Z,6.80
2023-03-29T09:45:23.341Z,6.32
2023-03-29T09:47:57.615Z,6.22
2023-03-29T09:50:32.024Z,6.38
2023-03-29T09:52:59.039Z,6.05
2023-03-29T09:55:28.853Z,6.55
2023-03-29T09:58:00.377Z,6.53
2023-03-29T10:00:26.758Z,6.43
2023-03-29T10:02:56.934Z,5.95
2023-03-29T10:05:25.950Z,6.70
2023-03-29T10:07:54.544Z,6.35
2023-03-29T10:10:27.207Z,6.85
2023-03-29T10:12:59.916Z,6.93
2023-03-29T10:15:30.804Z,6.07
2023-03-29T10:18:10.769Z,6.80
2023-03-29T10:20:39.967Z,6.28
2023-03-29T10:23:08.996Z,6.57
2023-03-29T10:25:42.479Z,6.80
2023-03-29T10:28:17.547Z,6.13
2023-03-29T10:30:52.398Z,6.00
2023-03-29T10:33:21.866Z,6.40
2023-03-29T10:35:48.672Z,6.40
2023-03-29T10:38:18.528Z,6.40
2023-03-29T10:40:51.718Z,7.45
2023-03-29T10:43:24.745Z,5.95
2023-03-29T10:45:54.456Z,6.32
2023-03-29T10:48:31.148Z,6.10
2023-03-29T10:51:00.209Z,6.03
2023-03-29T10:53:36.085Z,6.30
2023-03-29T10:56:24.488Z,6.60
2023-03-29T10:59:03.946Z,6.50
2023-03-29T11:01:55.252Z,6.55
2023-03-29T11:04:28.343Z,6.28
2023-03-29T11:07:16.549Z,6.35
2023-03-29T11:09:56.184Z,6.35
2023-03-29T11:12:30.332Z,5.77
2023-03-29T11:15:09.101Z,5.97
2023-03-29T11:18:00.928Z,5.72
2023-03-29T11:21:14.398Z,5.60
2023-03-29T11:24:03.472Z,6.30
2023-03-29T11:26:41.967Z,6.10
2023-03-29T11:29:45.972Z,5.80
2023-03-29T11:32:24.585Z,6.15
2023-03-29T11:34:53.975Z,6.75
2023-03-29T11:37:43.623Z,6.10
2023-03-29T11:40:31.562Z,6.60
2023-03-29T11:43:00.413Z,6.20
2023-03-29T11:45:36.671Z,6.15
2023-03-29T11:48:07.540Z,6.38
2023-03-29T11:50:50.970Z,5.97
2023-03-29T11:53:24.539Z,6.43
2023-03-29T11:55:52.747Z,6.10
2023-03-29T11:58:32.175Z,6.50
2023-03-29T12:01:05.017Z,6.03
2023-03-29T12:03:41.124Z,6.22
2023-03-29T12:06:22.271Z,6.00
2023-03-29T12:09:03.006Z,6.07
2023-03-29T12:11:40.369Z,6.15
2023-03-29T12:14:28.330Z,6.05
2023-03-29T12:17:03.386Z,6.20
2023-03-29T12:19:43.582Z,6.53
2023-03-29T12:22:10.657Z,6.38
2023-03-29T12:24:41.575Z,6.30
2023-03-29T12:27:21.225Z,5.97
2023-03-29T12:30:27.224Z,6.40
2023-03-29T12:33:31.738Z,6.00
2023-03-29T12:36:13.601Z,6.45
2023-03-29T12:38:42.567Z,6.78
2023-03-29T12:41:17.559Z,7.05
2023-03-29T12:43:44.082Z,7.38
2023-03-29T12:46:16.636Z,7.03
2023-03-29T12:48:45.355Z,7.55
2023-03-29T12:51:18.203Z,6.90
2023-03-29T12:53:50.932Z,7.05
2023-03-29T12:56:21.734Z,6.95
2023-03-29T12:59:13.125Z,7.47
2023-03-29T13:01:43.033Z,7.28
2023-03-29T13:04:14.772Z,7.18
2023-03-29T13:06:47.146Z,7.25
2023-03-29T13:09:29.668Z,7.22
2023-03-29T13:12:11.399Z,7.95
2023-03-29T13:14:42.797Z,7.68
2023-03-29T13:17:30.935Z,7.28
2023-03-29T13:20:29.712Z,7.47
2023-03-29T13:23:02.522Z,7.50
2023-03-29T13:26:02.546Z,7.32
2023-03-29T13:28:46.014Z,8.43
2023-03-29T13:31:46.653Z,8.40
2023-03-29T13:34:57.698Z,8.15
2023-03-29T13:37:40.231Z,8.25
2023-03-29T13:40:41.447Z,8.18
2023-03-29T13:43:22.517Z,7.78
2023-03-29T13:46:22.424Z,8.55
2023-03-29T13:48:54.031Z,8.20
2023-03-29T13:51:32.348Z,7.95
2023-03-29T13:54:10.346Z,8.18
2023-03-29T13:56:51.465Z,8.10
2023-03-29T13:59:30.986Z,7.32
2023-03-29T14:02:00.566Z,7.65
2023-03-29T14:04:32.172Z,7.43
2023-03-29T14:07:00.411Z,7.32
2023-03-29T14:09:30.135Z,7.38
2023-03-29T14:12:01.368Z,7.03
2023-03-29T14:14:31.588Z,7.10
2023-03-29T14:16:58.561Z,7.00
2023-03-29T14:19:34.365Z,7.38
2023-03-29T14:22:01.808Z,7.43
2023-03-29T14:24:39.973Z,7.38
2023-03-29T14:27:11.376Z,7.72
2023-03-29T14:29:37.821Z,7.45
2023-03-29T14:32:31.229Z,7.13
2023-03-29T14:34:57.984Z,7.57
2023-03-29T14:37:28.542Z,7.82
2023-03-29T14:39:56.425Z,8.80
2023-03-29T14:42:28.391Z,7.80
2023-03-29T14:45:04.046Z,8.25
2023-03-29T14:47:33.196Z,8.07
2023-03-29T14:50:03.922Z,7.93
2023-03-29T14:52:31.675Z,8.02
2023-03-29T14:55:02.303Z,7.63
2023-03-29T14:57:35.512Z,7.55
2023-03-29T15:00:27.971Z,8.40
2023-03-29T15:02:58.706Z,8.45
2023-03-29T15:05:33.790Z,8.40
2023-03-29T15:08:01.691Z,8.90
2023-03-29T15:10:31.588Z,8.77
2023-03-29T15:12:58.171Z,8.70
2023-03-29T15:15:25.712Z,9.48
2023-03-29T15:17:53.146Z,10.10
2023-03-29T15:20:27.091Z,9.30
2023-03-29T15:22:57.709Z,9.20
2023-03-29T15:25:27.484Z,9.25
2023-03-29T15:28:00.213Z,9.10
2023-03-29T15:30:38.278Z,8.93
2023-03-29T15:33:24.119Z,9.25
2023-03-29T15:35:53.152Z,9.68
2023-03-29T15:38:27.500Z,9.73
2023-03-29T15:41:01.305Z,8.93
2023-03-29T15:43:27.914Z,8.95
2023-03-29T15:45:54.484Z,9.48
2023-03-29T15:48:23.964Z,9.05
2023-03-29T15:50:50.620Z,9.27
2023-03-29T15:53:18.221Z,8.88
2023-03-29T15:55:47.928Z,9.27
2023-03-29T15:58:17.003Z,8.98
2023-03-29T16:00:46.630Z,9.35
2023-03-29T16:03:15.273Z,9.50
2023-03-29T16:05:43.485Z,9.45
2023-03-29T16:08:13.353Z,9.75
2023-03-29T16:10:41.209Z,10.52
2023-03-29T16:13:07.913Z,10.77
2023-03-29T16:15:36.806Z,9.98
2023-03-29T16:18:03.625Z,9.88
2023-03-29T16:20:30.318Z,10.30
2023-03-29T16:22:56.703Z,10.60
2023-03-29T16:25:23.414Z,10.27
2023-03-29T16:27:52.403Z,10.80
2023-03-29T16:30:19.421Z,10.07
2023-03-29T16:32:46.008Z,10.48
2023-03-29T16:35:19.973Z,10.82
2023-03-29T16:37:46.684Z,10.45
2023-03-29T16:40:13.323Z,9.70
2023-03-29T16:42:39.798Z,10.25
2023-03-29T16:45:07.527Z,10.15
2023-03-29T16:47:33.920Z,10.82
2023-03-29T16:50:00.343Z,10.32
2023-03-29T16:52:27.603Z,11.07
2023-03-29T16:54:53.966Z,10.63
2023-03-29T16:57:20.379Z,11.60
2023-03-29T16:59:47.655Z,11.02
2023-03-29T17:02:14.138Z,11.90
2023-03-29T17:04:40.621Z,11.13
2023-03-29T17:07:07.082Z,11.85
2023-03-29T17:09:33.437Z,10.50
2023-03-29T17:11:59.825Z,10.80
2023-03-29T17:14:26.477Z,10.82
2023-03-29T17:16:53.638Z,11.07
2023-03-29T17:19:20.037Z,10.48
2023-03-29T17:21:46.513Z,10.70
2023-03-29T17:24:12.957Z,11.10
2023-03-29T17:26:39.870Z,11.35
2023-03-29T17:29:06.326Z,12.15
2023-03-29T17:31:34.789Z,12.43
2023-03-29T17:34:01.246Z,10.73
2023-03-29T17:36:28.895Z,11.25
2023-03-29T17:38:55.569Z,11.93
2023-03-29T17:41:22.849Z,11.45
2023-03-29T17:43:50.961Z,10.07
2023-03-29T17:46:18.036Z,10.95
2023-03-29T17:48:46.056Z,10.70
2023-03-29T17:51:12.414Z,10.90
2023-03-29T17:53:38.799Z,10.98
2023-03-29T17:56:07.005Z,10.63
2023-03-29T17:58:33.461Z,10.65
2023-03-29T18:01:05.820Z,11.18
2023-03-29T18:03:32.650Z,12.00
2023-03-29T18:05:59.001Z,10.50
2023-03-29T18:08:25.838Z,10.40
2023-03-29T18:10:52.250Z,10.95
2023-03-29T18:13:24.395Z,10.20
2023-03-29T18:15:56.911Z,10.35
2023-03-29T18:18:23.959Z,11.10
2023-03-29T18:20:50.583Z,10.10
2023-03-29T18:23:17.156Z,11.18
2023-03-29T18:25:43.499Z,10.68
2023-03-29T18:28:10.054Z,10.88
2023-03-29T18:30:36.514Z,11.18
2023-03-29T18:33:02.908Z,11.98
2023-03-29T18:35:29.282Z,12.02
2023-03-29T18:37:55.721Z,11.70
2023-03-29T18:40:24.837Z,11.43
2023-03-29T18:42:52.304Z,11.85
2023-03-29T18:45:19.128Z,10.50
2023-03-29T18:47:45.542Z,10.93
2023-03-29T18:50:13.203Z,10.27
2023-03-29T18:52:40.022Z,9.45
2023-03-29T18:55:07.245Z,9.90
2023-03-29T18:57:33.843Z,9.73
2023-03-29T19:00:00.426Z,10.27
2023-03-29T19:02:26.916Z,9.65
2023-03-29T19:04:53.370Z,10.70
2023-03-29T19:07:20.972Z,10.13
2023-03-29T19:09:47.379Z,12.10
2023-03-29T19:12:13.739Z,11.90
2023-03-29T19:14:40.167Z,12.05
2023-03-29T19:17:06.537Z,10.70
2023-03-29T19:19:33.019Z,11.10
2023-03-29T19:22:00.774Z,11.60
2023-03-29T19:24:27.472Z,13.20
2023-03-29T19:26:53.927Z,13.35
2023-03-29T19:29:20.606Z,12.75
2023-03-29T19:31:47.221Z,12.30
2023-03-29T19:34:13.753Z,13.88
2023-03-29T19:36:40.126Z,13.18
2023-03-29T19:39:07.205Z,12.40
2023-03-29T19:41:33.637Z,12.95
2023-03-29T19:44:00.399Z,13.05
2023-03-29T19:46:28.276Z,13.38
2023-03-29T19:48:56.154Z,13.80
2023-03-29T19:51:23.550Z,13.63
2023-03-29T19:53:50.452Z,13.05
2023-03-29T19:56:17.253Z,13.60
2023-03-29T19:58:43.719Z,14.45
2023-03-29T20:01:10.117Z,15.52
2023-03-29T20:03:36.561Z,13.90
2023-03-29T20:06:03.381Z,13.73
2023-03-29T20:08:29.806Z,14.20
2023-03-29T20:11:02.443Z,14.98
2023-03-29T20:13:38.404Z,14.45
2023-03-29T20:16:10.825Z,14.32
2023-03-29T20:18:44.691Z,15.30
2023-03-29T20:21:14.010Z,14.43
2023-03-29T20:23:40.650Z,14.52
2023-03-29T20:26:07.577Z,15.50
2023-03-29T20:28:34.710Z,14.68
2023-03-29T20:31:06.544Z,15.50
2023-03-29T20:33:33.515Z,14.30
2023-03-29T20:36:00.009Z,14.18
2023-03-29T20:38:26.564Z,15.00
2023-03-29T20:40:53.548Z,13.13
2023-03-29T20:43:20.191Z,14.27
2023-03-29T20:45:53.508Z,13.15
2023-03-29T20:48:23.109Z,13.02
2023-03-29T20:50:50.069Z,14.60
2023-03-29T20:53:18.173Z,14.52
2023-03-29T20:55:44.833Z,13.73
2023-03-29T20:58:11.310Z,13.68
2023-03-29T21:00:37.811Z,12.35
2023-03-29T21:03:04.579Z,13.80
2023-03-29T21:05:33.275Z,12.18
2023-03-29T21:08:00.165Z,12.52
2023-03-29T21:10:28.087Z,11.65
2023-03-29T21:12:54.870Z,12.52
2023-03-29T21:15:21.333Z,12.25
2023-03-29T21:17:47.820Z,12.23
2023-03-29T21:20:15.297Z,11.95
2023-03-29T21:22:44.942Z,11.77
2023-03-29T21:25:15.418Z,11.95
2023-03-29T21:27:42.075Z,11.98
2023-03-29T21:30:09.730Z,11.77
2023-03-29T21:32:36.432Z,12.90
2023-03-29T21:35:02.853Z,12.75
2023-03-29T21:37:29.235Z,12.20
2023-03-29T21:39:55.630Z,12.07
2023-03-29T21:42:21.985Z,11.63
2023-03-29T21:44:48.436Z,11.93
2023-03-29T21:47:14.829Z,11.65
2023-03-29T21:49:41.436Z,11.57
2023-03-29T21:52:07.914Z,12.05
2023-03-29T21:54:34.743Z,11.63
2023-03-29T21:57:01.202Z,11.55
2023-03-29T21:59:27.959Z,12.25
2023-03-29T22:01:54.444Z,11.32
2023-03-29T22:04:35.187Z,11.57
2023-03-29T22:07:03.294Z,11.55
2023-03-29T22:09:30.002Z,12.07
2023-03-29T22:11:56.908Z,11.68
2023-03-29T22:14:23.297Z,12.30
2023-03-29T22:16:49.681Z,12.05
2023-03-29T22:19:16.084Z,12.70
2023-03-29T22:21:42.531Z,12.40
2023-03-29T22:24:08.893Z,11.40
2023-03-29T22:26:35.465Z,12.07
2023-03-29T22:29:02.898Z,12.63
2023-03-29T22:31:30.287Z,11.65
2023-03-29T22:33:58.457Z,11.05
2023-03-29T22:36:27.922Z,12.02
2023-03-29T22:38:54.419Z,12.40
2023-03-29T22:41:26.026Z,11.90
2023-03-29T22:43:54.109Z,12.02
2023-03-29T22:46:21.122Z,11.98
2023-03-29T22:48:48.215Z,11.25
2023-03-29T22:51:16.122Z,11.07
2023-03-29T22:53:42.482Z,12.05
2023-03-29T22:56:09.527Z,12.32
2023-03-29T22:58:37.038Z,12.30
2023-03-29T23:01:04.879Z,10.90
2023-03-29T23:03:31.843Z,11.02
2023-03-29T23:06:02.280Z,11.63
2023-03-29T23:08:30.863Z,11.65
2023-03-29T23:10:57.773Z,12.52
2023-03-29T23:13:25.835Z,12.23
2023-03-29T23:15:54.486Z,12.65
2023-03-29T23:18:22.196Z,12.30
2023-03-29T23:20:52.926Z,12.90
2023-03-29T23:23:20.559Z,13.32
2023-03-29T23:25:48.979Z,12.23
2023-03-29T23:28:21.381Z,13.02
2023-03-29T23:31:00.322Z,12.73
2023-03-29T23:33:27.955Z,12.05
2023-03-29T23:35:54.842Z,13.25
2023-03-29T23:38:21.263Z,12.88
2023-03-29T23:41:00.803Z,13.07
2023-03-29T23:43:33.472Z,13.60
2023-03-29T23:46:02.292Z,12.57
2023-03-29T23:48:29.187Z,12.60
2023-03-29T23:50:58.947Z,12.93
2023-03-29T23:53:28.416Z,14.43
2023-03-29T23:56:03.386Z,12.63
2023-03-29T23:58:35.331Z,13.60
